Time,TemperatureF,DewpointF,PressureIn,WindDirection,WindDirectionDegrees,WindSpeedMPH,WindSpeedGustMPH,Humidity,HourlyPrecipIn,Conditions,Clouds,dailyrainin,SoftwareType,DateUTC
2013-01-15 00:00:00,27.5,24.5,30.34,NNE,20,9.0,9.0,88,0.00,,,0.00,VWS V14.01,2013-01-15 05:00:00,
2013-01-15 00:01:00,27.5,24.5,30.34,NNE,20,9.0,9.0,88,0.00,,,0.00,VWS V14.01,2013-01-15 05:01:00,
2013-01-15 00:06:00,27.4,24.4,30.34,North,3,7.5,7.5,88,0.00,,,0.00,VWS V14.01,2013-01-15 05:06:00,
2013-01-15 00:11:00,27.4,24.4,30.35,NNE,24,10.5,10.5,88,0.00,,,0.00,VWS V14.01,2013-01-15 05:11:00,
2013-01-15 00:16:00,27.4,24.4,30.35,North,351,7.5,9.0,88,0.00,,,0.00,VWS V14.01,2013-01-15 05:16:00,
2013-01-15 00:21:00,27.3,24.3,30.35,NE,41,7.5,13.5,88,0.00,,,0.00,VWS V14.01,2013-01-15 05:21:00,
2013-01-15 00:26:00,27.2,24.2,30.35,North,358,9.0,9.0,88,0.00,,,0.00,VWS V14.01,2013-01-15 05:26:00,
2013-01-15 00:31:00,27.2,24.2,30.34,NNE,16,13.5,13.5,88,0.00,,,0.00,VWS V14.01,2013-01-15 05:31:00,
2013-01-15 00:36:00,27.1,24.1,30.34,North,2,6.0,7.5,88,0.00,,,0.00,VWS V14.01,2013-01-15 05:36:00,
2013-01-15 00:41:00,27.1,24.1,30.34,NNE,29,7.5,9.0,88,0.00,,,0.00,VWS V14.01,2013-01-15 05:41:00,
2013-01-15 00:46:00,27.0,24.3,30.35,North,357,3.0,3.0,89,0.00,,,0.00,VWS V14.01,2013-01-15 05:46:00,
2013-01-15 00:51:00,27.0,24.3,30.34,NE,35,15.0,15.0,89,0.00,,,0.00,VWS V14.01,2013-01-15 05:51:00,
2013-01-15 00:56:00,26.9,24.2,30.34,NNE,15,7.5,7.5,89,0.00,,,0.00,VWS V14.01,2013-01-15 05:56:00,
2013-01-15 01:01:00,26.8,24.1,30.34,North,360,9.0,9.0,89,0.00,,,0.00,VWS V14.01,2013-01-15 06:01:00,
2013-01-15 01:06:00,26.7,24.0,30.34,NE,35,12.0,12.0,89,0.00,,,0.00,VWS V14.01,2013-01-15 06:06:00,
2013-01-15 01:11:00,26.7,24.0,30.34,NNE,22,6.0,12.0,89,0.00,,,0.00,VWS V14.01,2013-01-15 06:11:00,
2013-01-15 01:16:00,26.6,23.9,30.33,ENE,60,12.0,15.0,89,0.00,,,0.00,VWS V14.01,2013-01-15 06:16:00,
2013-01-15 01:21:00,26.6,23.9,30.33,North,6,12.0,15.0,89,0.00,,,0.00,VWS V14.01,2013-01-15 06:21:00,
2013-01-15 01:26:00,26.6,23.9,30.34,NE,34,4.5,7.5,89,0.00,,,0.00,VWS V14.01,2013-01-15 06:26:00,
2013-01-15 01:31:00,26.6,23.9,30.33,NNE,21,4.5,6.0,89,0.00,,,0.00,VWS V14.01,2013-01-15 06:31:00,
2013-01-15 01:36:00,26.6,23.9,30.33,NNE,18,4.5,7.5,89,0.00,,,0.00,VWS V14.01,2013-01-15 06:36:00,
2013-01-15 01:41:00,26.6,23.9,30.33,NNE,32,7.5,9.0,89,0.00,,,0.00,VWS V14.01,2013-01-15 06:41:00,
2013-01-15 01:46:00,26.6,23.9,30.33,NNE,15,9.0,9.0,89,0.00,,,0.00,VWS V14.01,2013-01-15 06:46:00,
2013-01-15 01:51:00,26.6,23.9,30.33,NNW,332,7.5,10.5,89,0.00,,,0.00,VWS V14.01,2013-01-15 06:51:00,
2013-01-15 01:56:00,26.5,23.8,30.34,North,1,10.5,10.5,89,0.00,,,0.00,VWS V14.01,2013-01-15 06:56:00,
2013-01-15 02:01:00,26.5,24.0,30.33,NNE,15,7.5,7.5,90,0.00,,,0.00,VWS V14.01,2013-01-15 07:01:00,
2013-01-15 02:06:00,26.5,24.0,30.33,ENE,58,6.0,6.0,90,0.00,,,0.00,VWS V14.01,2013-01-15 07:06:00,
2013-01-15 02:11:00,26.5,24.0,30.33,ENE,58,9.0,9.0,90,0.00,,,0.00,VWS V14.01,2013-01-15 07:11:00,
2013-01-15 02:16:00,26.5,24.0,30.33,NNE,22,9.0,10.5,90,0.00,,,0.00,VWS V14.01,2013-01-15 07:16:00,
2013-01-15 02:21:00,26.4,24.0,30.34,NE,52,10.5,13.5,90,0.00,,,0.00,VWS V14.01,2013-01-15 07:21:00,
2013-01-15 02:26:00,26.4,24.0,30.34,ENE,60,9.0,13.5,90,0.00,,,0.00,VWS V14.01,2013-01-15 07:26:00,
2013-01-15 02:31:00,26.4,24.0,30.34,NNE,21,12.0,16.5,90,0.00,,,0.00,VWS V14.01,2013-01-15 07:31:00,
2013-01-15 02:36:00,26.4,24.0,30.34,NNE,24,4.5,7.5,90,0.00,,,0.00,VWS V14.01,2013-01-15 07:36:00,
2013-01-15 02:41:00,26.3,23.9,30.34,NNE,20,12.0,12.0,90,0.00,,,0.00,VWS V14.01,2013-01-15 07:41:00,
2013-01-15 02:46:00,26.3,23.9,30.34,NNE,18,9.0,9.0,90,0.00,,,0.00,VWS V14.01,2013-01-15 07:46:00,
2013-01-15 02:51:00,26.3,23.9,30.34,NE,38,13.5,16.5,90,0.00,,,0.00,VWS V14.01,2013-01-15 07:51:00,
2013-01-15 02:56:00,26.3,23.9,30.34,NNW,337,13.5,13.5,90,0.00,,,0.00,VWS V14.01,2013-01-15 07:56:00,
2013-01-15 03:01:00,26.3,23.9,30.33,NNE,33,6.0,15.0,90,0.00,,,0.00,VWS V14.01,2013-01-15 08:01:00,
2013-01-15 03:06:00,26.3,23.9,30.34,NNE,31,6.0,15.0,90,0.00,,,0.00,VWS V14.01,2013-01-15 08:06:00,
2013-01-15 03:11:00,26.3,23.9,30.34,NE,41,6.0,7.5,90,0.00,,,0.00,VWS V14.01,2013-01-15 08:11:00,
2013-01-15 03:16:00,26.4,24.0,30.34,NNE,27,6.0,16.5,90,0.00,,,0.00,VWS V14.01,2013-01-15 08:16:00,
2013-01-15 03:21:00,26.4,24.0,30.34,NNE,13,13.5,13.5,90,0.00,,,0.00,VWS V14.01,2013-01-15 08:21:00,
2013-01-15 03:26:00,26.6,24.1,30.34,NNE,15,9.0,10.5,90,0.00,,,0.00,VWS V14.01,2013-01-15 08:26:00,
2013-01-15 03:31:00,26.6,24.1,30.34,NNE,29,4.5,9.0,90,0.00,,,0.00,VWS V14.01,2013-01-15 08:31:00,
2013-01-15 03:36:00,26.7,24.2,30.34,North,3,7.5,10.5,90,0.00,,,0.00,VWS V14.01,2013-01-15 08:36:00,
2013-01-15 03:41:00,26.8,24.1,30.35,NE,34,7.5,15.0,89,0.00,,,0.00,VWS V14.01,2013-01-15 08:41:00,
2013-01-15 03:46:00,26.8,24.1,30.35,NNE,15,10.5,13.5,89,0.00,,,0.00,VWS V14.01,2013-01-15 08:46:00,
2013-01-15 03:51:00,26.9,24.2,30.35,NNE,20,7.5,12.0,89,0.00,,,0.00,VWS V14.01,2013-01-15 08:51:00,
2013-01-15 03:56:00,26.9,24.2,30.35,NNE,24,12.0,15.0,89,0.00,,,0.00,VWS V14.01,2013-01-15 08:56:00,
2013-01-15 04:01:00,27.0,24.3,30.35,NNE,33,13.5,13.5,89,0.00,,,0.00,VWS V14.01,2013-01-15 09:01:00,
2013-01-15 04:06:00,27.0,24.3,30.35,North,10,12.0,12.0,89,0.00,,,0.00,VWS V14.01,2013-01-15 09:06:00,
2013-01-15 04:11:00,27.0,24.3,30.35,NNE,21,9.0,13.5,89,0.00,,,0.00,VWS V14.01,2013-01-15 09:11:00,
2013-01-15 04:16:00,27.0,24.3,30.35,NNE,20,10.5,13.5,89,0.00,,,0.00,VWS V14.01,2013-01-15 09:16:00,
2013-01-15 04:21:00,27.0,24.3,30.35,NNE,24,12.0,15.0,89,0.00,,,0.00,VWS V14.01,2013-01-15 09:21:00,
2013-01-15 04:26:00,27.0,24.3,30.35,North,353,7.5,12.0,89,0.00,,,0.00,VWS V14.01,2013-01-15 09:26:00,
2013-01-15 04:31:00,27.0,24.3,30.35,NNE,18,10.5,13.5,89,0.00,,,0.00,VWS V14.01,2013-01-15 09:31:00,
2013-01-15 04:36:00,27.0,24.3,30.35,ENE,76,10.5,15.0,89,0.00,,,0.00,VWS V14.01,2013-01-15 09:36:00,
2013-01-15 04:41:00,26.9,24.2,30.35,NE,46,6.0,15.0,89,0.00,,,0.00,VWS V14.01,2013-01-15 09:41:00,
2013-01-15 04:46:00,27.0,24.3,30.35,NNE,32,12.0,12.0,89,0.00,,,0.00,VWS V14.01,2013-01-15 09:46:00,
2013-01-15 04:51:00,26.9,24.2,30.35,North,4,7.5,10.5,89,0.00,,,0.00,VWS V14.01,2013-01-15 09:51:00,
2013-01-15 04:56:00,26.9,24.2,30.36,North,9,9.0,9.0,89,0.00,,,0.00,VWS V14.01,2013-01-15 09:56:00,
2013-01-15 05:01:00,26.9,24.2,30.36,ENE,58,3.0,7.5,89,0.00,,,0.00,VWS V14.01,2013-01-15 10:01:00,
2013-01-15 05:05:00,26.9,24.2,30.36,NE,47,3.0,7.5,89,0.00,,,0.00,VWS V14.01,2013-01-15 10:05:00,
2013-01-15 05:10:00,26.9,24.2,30.35,ENE,70,13.5,13.5,89,0.00,,,0.00,VWS V14.01,2013-01-15 10:10:00,
2013-01-15 05:15:00,26.9,24.2,30.35,NNE,33,10.5,16.5,89,0.00,,,0.00,VWS V14.01,2013-01-15 10:15:00,
2013-01-15 05:20:00,27.0,24.3,30.35,ENE,68,4.5,7.5,89,0.00,,,0.00,VWS V14.01,2013-01-15 10:20:00,
2013-01-15 05:25:00,27.0,24.3,30.35,North,7,6.0,7.5,89,0.00,,,0.00,VWS V14.01,2013-01-15 10:25:00,
2013-01-15 05:30:00,27.0,24.3,30.35,NNE,27,6.0,12.0,89,0.00,,,0.00,VWS V14.01,2013-01-15 10:30:00,
2013-01-15 05:35:00,26.9,24.2,30.35,NE,44,9.0,12.0,89,0.00,,,0.00,VWS V14.01,2013-01-15 10:35:00,
2013-01-15 05:40:00,27.0,24.3,30.35,NE,45,12.0,13.5,89,0.00,,,0.00,VWS V14.01,2013-01-15 10:40:00,
2013-01-15 05:45:00,26.8,24.1,30.35,NNW,332,9.0,13.5,89,0.00,,,0.00,VWS V14.01,2013-01-15 10:45:00,
2013-01-15 05:50:00,26.8,24.1,30.35,ENE,57,7.5,7.5,89,0.00,,,0.00,VWS V14.01,2013-01-15 10:50:00,
2013-01-15 05:55:00,26.8,24.1,30.35,NE,44,9.0,13.5,89,0.00,,,0.00,VWS V14.01,2013-01-15 10:55:00,
2013-01-15 06:00:00,26.7,24.0,30.35,NE,54,7.5,13.5,89,0.00,,,0.00,VWS V14.01,2013-01-15 11:00:00,
2013-01-15 06:05:00,26.6,23.9,30.35,NNE,25,6.0,7.5,89,0.00,,,0.00,VWS V14.01,2013-01-15 11:05:00,
2013-01-15 06:10:00,26.6,23.9,30.35,ENE,70,12.0,12.0,89,0.00,,,0.00,VWS V14.01,2013-01-15 11:10:00,
2013-01-15 06:15:00,26.6,23.9,30.35,NE,37,4.5,9.0,89,0.00,,,0.00,VWS V14.01,2013-01-15 11:15:00,
2013-01-15 06:20:00,26.5,23.8,30.35,NNE,24,6.0,9.0,89,0.00,,,0.00,VWS V14.01,2013-01-15 11:20:00,
2013-01-15 06:25:00,26.4,23.4,30.35,NNW,342,9.0,19.5,88,0.00,,,0.00,VWS V14.01,2013-01-15 11:25:00,
2013-01-15 06:30:00,26.4,23.4,30.35,NNE,21,13.5,13.5,88,0.00,,,0.00,VWS V14.01,2013-01-15 11:30:00,
2013-01-15 06:35:00,26.5,23.5,30.35,NE,52,4.5,13.5,88,0.00,,,0.00,VWS V14.01,2013-01-15 11:35:00,
2013-01-15 06:40:00,26.5,23.5,30.35,NNE,27,4.5,7.5,88,0.00,,,0.00,VWS V14.01,2013-01-15 11:40:00,
2013-01-15 06:45:00,26.5,23.5,30.36,NNE,21,12.0,15.0,88,0.00,,,0.00,VWS V14.01,2013-01-15 11:45:00,
2013-01-15 06:50:00,26.4,23.4,30.35,NE,48,6.0,7.5,88,0.00,,,0.00,VWS V14.01,2013-01-15 11:50:00,
2013-01-15 06:55:00,26.3,23.3,30.36,NNE,18,12.0,12.0,88,0.00,,,0.00,VWS V14.01,2013-01-15 11:55:00,
2013-01-15 07:00:00,26.3,23.3,30.37,NE,55,9.0,9.0,88,0.00,,,0.00,VWS V14.01,2013-01-15 12:00:00,
2013-01-15 07:05:00,26.2,23.2,30.37,East,89,7.5,12.0,88,0.00,,,0.00,VWS V14.01,2013-01-15 12:05:00,
2013-01-15 07:10:00,26.3,23.3,30.37,ENE,70,9.0,10.5,88,0.00,,,0.00,VWS V14.01,2013-01-15 12:10:00,
2013-01-15 07:15:00,26.2,22.9,30.37,NE,51,10.5,12.0,87,0.00,,,0.00,VWS V14.01,2013-01-15 12:15:00,
2013-01-15 07:20:00,26.1,22.8,30.37,ENE,58,7.5,10.5,87,0.00,,,0.00,VWS V14.01,2013-01-15 12:20:00,
2013-01-15 07:25:00,26.1,22.8,30.37,ENE,62,6.0,10.5,87,0.00,,,0.00,VWS V14.01,2013-01-15 12:25:00,
2013-01-15 07:30:00,26.0,22.7,30.37,East,90,6.0,7.5,87,0.00,,,0.00,VWS V14.01,2013-01-15 12:30:00,
2013-01-15 07:35:00,26.0,22.7,30.37,ENE,60,7.5,7.5,87,0.00,,,0.00,VWS V14.01,2013-01-15 12:35:00,
2013-01-15 07:40:00,26.1,22.8,30.37,ENE,63,6.0,9.0,87,0.00,,,0.00,VWS V14.01,2013-01-15 12:40:00,
2013-01-15 07:45:00,26.2,22.9,30.36,East,88,6.0,7.5,87,0.00,,,0.00,VWS V14.01,2013-01-15 12:45:00,
2013-01-15 07:50:00,26.3,23.0,30.36,NE,55,4.5,6.0,87,0.00,,,0.00,VWS V14.01,2013-01-15 12:50:00,
2013-01-15 07:55:00,26.3,23.0,30.36,East,84,6.0,7.5,87,0.00,,,0.00,VWS V14.01,2013-01-15 12:55:00,
2013-01-15 08:00:00,26.4,23.1,30.36,NE,46,4.5,6.0,87,0.00,,,0.00,VWS V14.01,2013-01-15 13:00:00,
2013-01-15 08:05:00,26.5,23.5,30.37,NNE,32,10.5,10.5,88,0.00,,,0.00,VWS V14.01,2013-01-15 13:05:00,
2013-01-15 08:10:00,26.6,23.3,30.37,ENE,74,6.0,10.5,87,0.00,,,0.00,VWS V14.01,2013-01-15 13:10:00,
2013-01-15 08:15:00,26.7,23.4,30.37,ENE,73,4.5,7.5,87,0.00,,,0.00,VWS V14.01,2013-01-15 13:15:00,
2013-01-15 08:20:00,26.8,23.5,30.37,ENE,76,9.0,10.5,87,0.00,,,0.00,VWS V14.01,2013-01-15 13:20:00,
2013-01-15 08:25:00,26.9,23.9,30.37,NE,36,9.0,9.0,88,0.00,,,0.00,VWS V14.01,2013-01-15 13:25:00,
2013-01-15 08:30:00,27.0,23.7,30.37,NE,41,10.5,10.5,87,0.00,,,0.00,VWS V14.01,2013-01-15 13:30:00,
2013-01-15 08:35:00,27.0,23.7,30.37,ENE,62,12.0,12.0,87,0.00,,,0.00,VWS V14.01,2013-01-15 13:35:00,
2013-01-15 08:40:00,27.1,23.8,30.38,NE,37,12.0,15.0,87,0.00,,,0.00,VWS V14.01,2013-01-15 13:40:00,
2013-01-15 08:45:00,27.1,23.8,30.38,ENE,63,9.0,10.5,87,0.00,,,0.00,VWS V14.01,2013-01-15 13:45:00,
2013-01-15 08:50:00,27.2,23.9,30.38,North,7,9.0,10.5,87,0.00,,,0.00,VWS V14.01,2013-01-15 13:50:00,
2013-01-15 08:55:00,27.2,23.9,30.39,East,97,10.5,10.5,87,0.00,,,0.00,VWS V14.01,2013-01-15 13:55:00,
2013-01-15 09:00:00,27.3,23.7,30.38,ENE,78,10.5,10.5,86,0.00,,,0.00,VWS V14.01,2013-01-15 14:00:00,
2013-01-15 09:05:00,27.3,23.7,30.38,ENE,65,10.5,13.5,86,0.00,,,0.00,VWS V14.01,2013-01-15 14:05:00,
2013-01-15 09:10:00,27.3,23.7,30.38,ENE,68,21.0,21.0,86,0.00,,,0.00,VWS V14.01,2013-01-15 14:10:00,
2013-01-15 09:15:00,27.4,23.8,30.38,ENE,62,12.0,12.0,86,0.00,,,0.00,VWS V14.01,2013-01-15 14:15:00,
2013-01-15 09:20:00,27.4,23.8,30.37,ENE,72,6.0,6.0,86,0.00,,,0.00,VWS V14.01,2013-01-15 14:20:00,
2013-01-15 09:25:00,27.4,23.8,30.37,ENE,70,7.5,9.0,86,0.00,,,0.00,VWS V14.01,2013-01-15 14:25:00,
2013-01-15 09:30:00,27.6,24.0,30.37,East,80,6.0,9.0,86,0.00,,,0.00,VWS V14.01,2013-01-15 14:30:00,
2013-01-15 09:35:00,27.7,24.4,30.37,NE,52,13.5,13.5,87,0.00,,,0.00,VWS V14.01,2013-01-15 14:35:00,
2013-01-15 09:40:00,27.8,24.2,30.37,NE,50,6.0,7.5,86,0.00,,,0.00,VWS V14.01,2013-01-15 14:40:00,
2013-01-15 09:45:00,27.9,24.6,30.37,East,96,4.5,6.0,87,0.00,,,0.00,VWS V14.01,2013-01-15 14:45:00,
2013-01-15 09:50:00,28.1,24.8,30.37,ENE,70,9.0,13.5,87,0.00,,,0.00,VWS V14.01,2013-01-15 14:50:00,
2013-01-15 09:55:00,28.3,25.0,30.37,ENE,71,4.5,7.5,87,0.00,,,0.00,VWS V14.01,2013-01-15 14:55:00,
2013-01-15 10:00:00,28.4,24.8,30.37,East,84,6.0,9.0,86,0.00,,,0.00,VWS V14.01,2013-01-15 15:00:00,
2013-01-15 10:05:00,28.6,25.0,30.37,ENE,72,6.0,7.5,86,0.00,,,0.00,VWS V14.01,2013-01-15 15:05:00,
2013-01-15 10:10:00,28.7,24.8,30.37,ENE,70,10.5,10.5,85,0.00,,,0.00,VWS V14.01,2013-01-15 15:10:00,
2013-01-15 10:15:00,28.8,24.9,30.37,East,86,12.0,12.0,85,0.00,,,0.00,VWS V14.01,2013-01-15 15:15:00,
2013-01-15 10:20:00,28.9,25.0,30.37,ENE,63,10.5,10.5,85,0.00,,,0.00,VWS V14.01,2013-01-15 15:20:00,
2013-01-15 10:25:00,29.0,25.1,30.36,ENE,67,7.5,9.0,85,0.00,,,0.00,VWS V14.01,2013-01-15 15:25:00,
2013-01-15 10:30:00,29.1,25.2,30.36,NE,53,12.0,13.5,85,0.00,,,0.00,VWS V14.01,2013-01-15 15:30:00,
2013-01-15 10:35:00,29.1,25.2,30.36,ENE,68,4.5,4.5,85,0.00,,,0.00,VWS V14.01,2013-01-15 15:35:00,
2013-01-15 10:40:00,29.3,25.4,30.37,NNE,15,10.5,12.0,85,0.00,,,0.00,VWS V14.01,2013-01-15 15:40:00,
2013-01-15 10:45:00,29.3,25.4,30.37,NE,44,7.5,7.5,85,0.00,,,0.00,VWS V14.01,2013-01-15 15:45:00,
2013-01-15 10:50:00,29.5,25.6,30.37,NE,40,7.5,9.0,85,0.00,,,0.00,VWS V14.01,2013-01-15 15:50:00,
2013-01-15 10:55:00,29.6,25.7,30.37,NE,44,9.0,10.5,85,0.00,,,0.00,VWS V14.01,2013-01-15 15:55:00,
2013-01-15 11:00:00,29.6,25.7,30.37,ENE,58,4.5,6.0,85,0.00,,,0.00,VWS V14.01,2013-01-15 16:00:00,
2013-01-15 11:05:00,29.7,25.5,30.37,North,8,12.0,12.0,84,0.00,,,0.00,VWS V14.01,2013-01-15 16:05:00,
2013-01-15 11:10:00,29.7,25.5,30.36,ENE,64,6.0,9.0,84,0.00,,,0.00,VWS V14.01,2013-01-15 16:10:00,
2013-01-15 11:15:00,29.8,25.6,30.36,ENE,58,9.0,9.0,84,0.00,,,0.00,VWS V14.01,2013-01-15 16:15:00,
2013-01-15 11:20:00,30.0,25.8,30.35,ENE,57,9.0,9.0,84,0.00,,,0.00,VWS V14.01,2013-01-15 16:20:00,
2013-01-15 11:25:00,30.2,26.0,30.34,NNE,27,10.5,12.0,84,0.00,,,0.00,VWS V14.01,2013-01-15 16:25:00,
2013-01-15 11:30:00,30.2,26.0,30.33,NE,34,9.0,10.5,84,0.00,,,0.00,VWS V14.01,2013-01-15 16:30:00,
2013-01-15 11:35:00,30.3,26.1,30.32,ENE,60,6.0,6.0,84,0.00,,,0.00,VWS V14.01,2013-01-15 16:35:00,
2013-01-15 11:40:00,30.6,26.4,30.32,ENE,70,13.5,16.5,84,0.00,,,0.00,VWS V14.01,2013-01-15 16:40:00,
2013-01-15 11:45:00,30.7,26.1,30.31,NE,53,9.0,10.5,83,0.00,,,0.00,VWS V14.01,2013-01-15 16:45:00,
2013-01-15 11:50:00,30.8,26.2,30.30,ENE,60,9.0,9.0,83,0.00,,,0.00,VWS V14.01,2013-01-15 16:50:00,
2013-01-15 11:55:00,30.9,26.0,30.30,NE,41,4.5,4.5,82,0.00,,,0.00,VWS V14.01,2013-01-15 16:55:00,
2013-01-15 12:00:00,31.1,26.2,30.29,NE,44,10.5,10.5,82,0.00,,,0.00,VWS V14.01,2013-01-15 17:00:00,
2013-01-15 12:05:00,31.5,27.2,30.29,NE,54,9.0,9.0,84,0.00,,,0.00,VWS V14.01,2013-01-15 17:05:00,
2013-01-15 12:10:00,31.8,26.9,30.29,NE,56,7.5,7.5,82,0.00,,,0.00,VWS V14.01,2013-01-15 17:10:00,
2013-01-15 12:15:00,31.7,26.5,30.29,ENE,62,12.0,15.0,81,0.00,,,0.00,VWS V14.01,2013-01-15 17:15:00,
2013-01-15 12:20:00,31.6,26.4,30.29,ENE,77,3.0,13.5,81,0.00,,,0.00,VWS V14.01,2013-01-15 17:20:00,
2013-01-15 12:25:00,32.0,27.1,30.29,NNE,27,7.5,9.0,82,0.00,,,0.00,VWS V14.01,2013-01-15 17:25:00,
2013-01-15 12:30:00,31.9,26.4,30.29,NE,54,12.0,15.0,80,0.00,,,0.00,VWS V14.01,2013-01-15 17:30:00,
2013-01-15 12:35:00,31.9,26.7,30.28,NE,53,7.5,12.0,81,0.00,,,0.00,VWS V14.01,2013-01-15 17:35:00,
2013-01-15 12:40:00,32.1,26.9,30.28,ENE,72,6.0,12.0,81,0.00,,,0.00,VWS V14.01,2013-01-15 17:40:00,
2013-01-15 12:45:00,32.0,26.5,30.28,East,84,6.0,12.0,80,0.00,,,0.00,VWS V14.01,2013-01-15 17:45:00,
2013-01-15 12:50:00,32.3,27.1,30.27,ENE,72,7.5,13.5,81,0.00,,,0.00,VWS V14.01,2013-01-15 17:50:00,
2013-01-15 12:55:00,32.4,26.9,30.26,NE,54,7.5,10.5,80,0.00,,,0.00,VWS V14.01,2013-01-15 17:55:00,
2013-01-15 13:00:00,32.4,26.5,30.26,ENE,67,7.5,10.5,79,0.00,,,0.00,VWS V14.01,2013-01-15 18:00:00,
2013-01-15 13:05:00,32.6,27.1,30.26,NE,56,10.5,12.0,80,0.00,,,0.00,VWS V14.01,2013-01-15 18:05:00,
2013-01-15 13:10:00,32.6,26.7,30.26,ENE,60,10.5,13.5,79,0.00,,,0.00,VWS V14.01,2013-01-15 18:10:00,
2013-01-15 13:15:00,32.7,26.8,30.25,ENE,65,7.5,13.5,79,0.00,,,0.00,VWS V14.01,2013-01-15 18:15:00,
2013-01-15 13:20:00,32.6,27.1,30.25,NE,34,7.5,9.0,80,0.00,,,0.00,VWS V14.01,2013-01-15 18:20:00,
2013-01-15 13:25:00,32.7,26.8,30.24,NE,54,4.5,12.0,79,0.00,,,0.00,VWS V14.01,2013-01-15 18:25:00,
2013-01-15 13:30:00,32.8,26.9,30.24,NE,46,12.0,12.0,79,0.00,,,0.00,VWS V14.01,2013-01-15 18:30:00,
2013-01-15 13:35:00,33.0,27.1,30.24,NE,44,10.5,12.0,79,0.00,,,0.00,VWS V14.01,2013-01-15 18:35:00,
2013-01-15 13:40:00,33.0,27.1,30.24,NE,43,7.5,13.5,79,0.00,,,0.00,VWS V14.01,2013-01-15 18:40:00,
2013-01-15 13:44:00,33.3,27.1,30.23,North,360,9.0,12.0,78,0.00,,,0.00,VWS V14.01,2013-01-15 18:44:00,
2013-01-15 13:49:00,33.3,27.1,30.23,ENE,72,9.0,13.5,78,0.00,,,0.00,VWS V14.01,2013-01-15 18:49:00,
2013-01-15 13:54:00,33.3,27.1,30.21,East,93,9.0,15.0,78,0.00,,,0.00,VWS V14.01,2013-01-15 18:54:00,
2013-01-15 13:59:00,33.5,27.3,30.21,NE,46,7.5,15.0,78,0.00,,,0.00,VWS V14.01,2013-01-15 18:59:00,
2013-01-15 14:04:00,33.4,27.2,30.21,NE,56,9.0,10.5,78,0.00,,,0.00,VWS V14.01,2013-01-15 19:04:00,
2013-01-15 14:09:00,33.6,27.4,30.21,NE,54,7.5,9.0,78,0.00,,,0.00,VWS V14.01,2013-01-15 19:09:00,
2013-01-15 14:14:00,33.6,27.1,30.21,NNE,21,12.0,13.5,77,0.00,,,0.00,VWS V14.01,2013-01-15 19:14:00,
2013-01-15 14:19:00,33.6,27.1,30.21,NE,56,4.5,9.0,77,0.00,,,0.00,VWS V14.01,2013-01-15 19:19:00,
2013-01-15 14:24:00,33.6,26.7,30.21,ENE,70,10.5,10.5,76,0.00,,,0.00,VWS V14.01,2013-01-15 19:24:00,
2013-01-15 14:29:00,33.7,27.2,30.21,ENE,60,4.5,10.5,77,0.00,,,0.00,VWS V14.01,2013-01-15 19:29:00,
2013-01-15 14:34:00,33.7,27.2,30.22,NNE,29,12.0,12.0,77,0.00,,,0.00,VWS V14.01,2013-01-15 19:34:00,
2013-01-15 14:39:00,33.8,27.3,30.21,East,80,4.5,9.0,77,0.00,,,0.00,VWS V14.01,2013-01-15 19:39:00,
2013-01-15 14:44:00,33.8,27.3,30.21,NE,41,9.0,13.5,77,0.00,,,0.00,VWS V14.01,2013-01-15 19:44:00,
2013-01-15 14:49:00,33.8,27.3,30.20,NNE,28,6.0,12.0,77,0.00,,,0.00,VWS V14.01,2013-01-15 19:49:00,
2013-01-15 14:54:00,33.9,27.4,30.19,ENE,66,18.0,19.5,77,0.00,,,0.00,VWS V14.01,2013-01-15 19:54:00,
2013-01-15 14:59:00,33.9,27.4,30.21,ENE,70,9.0,13.5,77,0.00,,,0.00,VWS V14.01,2013-01-15 19:59:00,
2013-01-15 15:04:00,34.0,27.5,30.20,NE,49,16.5,16.5,77,0.00,,,0.00,VWS V14.01,2013-01-15 20:04:00,
2013-01-15 15:09:00,34.0,27.5,30.19,NE,48,9.0,12.0,77,0.00,,,0.00,VWS V14.01,2013-01-15 20:09:00,
2013-01-15 15:14:00,33.9,27.4,30.18,ENE,60,10.5,15.0,77,0.00,,,0.00,VWS V14.01,2013-01-15 20:14:00,
2013-01-15 15:19:00,33.8,27.3,30.17,ENE,61,10.5,13.5,77,0.00,,,0.00,VWS V14.01,2013-01-15 20:19:00,
2013-01-15 15:24:00,33.7,27.5,30.17,ENE,59,9.0,15.0,78,0.00,,,0.00,VWS V14.01,2013-01-15 20:24:00,
2013-01-15 15:29:00,33.7,27.5,30.22,NNE,18,15.0,15.0,78,0.00,,,0.00,VWS V14.01,2013-01-15 20:29:00,
2013-01-15 15:34:00,33.8,27.6,30.25,NNW,343,9.0,9.0,78,0.00,,,0.00,VWS V14.01,2013-01-15 20:34:00,
2013-01-15 15:39:00,33.8,27.6,30.26,NNE,24,7.5,7.5,78,0.00,,,0.00,VWS V14.01,2013-01-15 20:39:00,
2013-01-15 15:44:00,33.9,27.7,30.24,NE,38,9.0,9.0,78,0.00,,,0.00,VWS V14.01,2013-01-15 20:44:00,
2013-01-15 15:49:00,33.9,27.7,30.25,NE,38,7.5,10.5,78,0.00,,,0.00,VWS V14.01,2013-01-15 20:49:00,
2013-01-15 15:54:00,33.9,27.4,30.23,NE,46,9.0,12.0,77,0.00,,,0.00,VWS V14.01,2013-01-15 20:54:00,
2013-01-15 15:59:00,33.9,27.4,30.23,NE,46,6.0,16.5,77,0.00,,,0.00,VWS V14.01,2013-01-15 20:59:00,
2013-01-15 16:04:00,33.9,27.7,30.23,NNE,20,15.0,16.5,78,0.00,,,0.00,VWS V14.01,2013-01-15 21:04:00,
2013-01-15 16:09:00,33.9,27.7,30.22,NE,38,10.5,13.5,78,0.00,,,0.00,VWS V14.01,2013-01-15 21:09:00,
2013-01-15 16:14:00,33.8,27.6,30.23,NNE,18,13.5,13.5,78,0.00,,,0.00,VWS V14.01,2013-01-15 21:14:00,
2013-01-15 16:19:00,33.8,27.6,30.22,ENE,70,18.0,18.0,78,0.00,,,0.00,VWS V14.01,2013-01-15 21:19:00,
2013-01-15 16:24:00,33.8,27.3,30.22,NE,54,13.5,19.5,77,0.00,,,0.00,VWS V14.01,2013-01-15 21:24:00,
2013-01-15 16:29:00,33.8,27.6,30.23,NNE,20,9.0,9.0,78,0.00,,,0.00,VWS V14.01,2013-01-15 21:29:00,
2013-01-15 16:34:00,33.8,27.6,30.23,ENE,61,10.5,12.0,78,0.00,,,0.00,VWS V14.01,2013-01-15 21:34:00,
2013-01-15 16:39:00,33.7,27.2,30.25,North,2,13.5,18.0,77,0.00,,,0.00,VWS V14.01,2013-01-15 21:39:00,
2013-01-15 16:44:00,33.7,27.5,30.24,NNE,17,12.0,12.0,78,0.00,,,0.00,VWS V14.01,2013-01-15 21:44:00,
2013-01-15 16:49:00,33.6,27.4,30.24,NE,37,9.0,15.0,78,0.00,,,0.00,VWS V14.01,2013-01-15 21:49:00,
2013-01-15 16:54:00,33.5,27.0,30.21,ENE,64,7.5,7.5,77,0.00,,,0.00,VWS V14.01,2013-01-15 21:54:00,
2013-01-15 16:59:00,33.5,27.3,30.21,NNE,27,10.5,15.0,78,0.00,,,0.00,VWS V14.01,2013-01-15 21:59:00,
2013-01-15 17:04:00,33.4,27.2,30.21,NNE,31,10.5,10.5,78,0.00,,,0.00,VWS V14.01,2013-01-15 22:04:00,
2013-01-15 17:09:00,33.3,27.1,30.19,East,79,13.5,18.0,78,0.00,,,0.00,VWS V14.01,2013-01-15 22:09:00,
2013-01-15 17:14:00,33.2,26.7,30.21,North,1,10.5,13.5,77,0.00,,,0.00,VWS V14.01,2013-01-15 22:14:00,
2013-01-15 17:19:00,33.2,27.0,30.24,NE,41,9.0,12.0,78,0.00,,,0.00,VWS V14.01,2013-01-15 22:19:00,
2013-01-15 17:24:00,33.1,26.9,30.24,NE,34,9.0,9.0,78,0.00,,,0.00,VWS V14.01,2013-01-15 22:24:00,
2013-01-15 17:29:00,33.1,26.9,30.22,NE,41,10.5,10.5,78,0.00,,,0.00,VWS V14.01,2013-01-15 22:29:00,
2013-01-15 17:34:00,33.0,26.8,30.22,NNE,24,10.5,13.5,78,0.00,,,0.00,VWS V14.01,2013-01-15 22:34:00,
2013-01-15 17:39:00,32.9,27.0,30.19,NE,48,12.0,16.5,79,0.00,,,0.00,VWS V14.01,2013-01-15 22:39:00,
2013-01-15 17:44:00,32.8,26.6,30.19,North,9,15.0,18.0,78,0.00,,,0.00,VWS V14.01,2013-01-15 22:44:00,
2013-01-15 17:49:00,32.7,26.8,30.20,NNE,14,10.5,10.5,79,0.00,,,0.00,VWS V14.01,2013-01-15 22:49:00,
2013-01-15 17:54:00,32.7,26.8,30.21,NE,46,4.5,6.0,79,0.00,,,0.00,VWS V14.01,2013-01-15 22:54:00,
2013-01-15 17:59:00,32.7,26.8,30.20,ENE,61,7.5,7.5,79,0.00,,,0.00,VWS V14.01,2013-01-15 22:59:00,
2013-01-15 18:04:00,32.7,26.8,30.21,NE,52,16.5,16.5,79,0.00,,,0.00,VWS V14.01,2013-01-15 23:04:00,
2013-01-15 18:09:00,32.7,26.8,30.19,East,91,10.5,10.5,79,0.00,,,0.00,VWS V14.01,2013-01-15 23:09:00,
2013-01-15 18:14:00,32.7,26.8,30.18,ENE,60,9.0,10.5,79,0.00,,,0.00,VWS V14.01,2013-01-15 23:14:00,
2013-01-15 18:19:00,32.7,26.8,30.19,ENE,66,6.0,7.5,79,0.00,,,0.00,VWS V14.01,2013-01-15 23:19:00,
2013-01-15 18:24:00,32.6,27.1,30.19,ENE,58,3.0,4.5,80,0.00,,,0.00,VWS V14.01,2013-01-15 23:24:00,
2013-01-15 18:29:00,32.7,26.8,30.21,NE,41,4.5,4.5,79,0.00,,,0.00,VWS V14.01,2013-01-15 23:29:00,
2013-01-15 18:34:00,32.7,26.8,30.21,NNE,21,6.0,6.0,79,0.00,,,0.00,VWS V14.01,2013-01-15 23:34:00,
2013-01-15 18:39:00,32.6,26.7,30.21,NNE,32,4.5,6.0,79,0.00,,,0.00,VWS V14.01,2013-01-15 23:39:00,
2013-01-15 18:44:00,32.7,27.2,30.20,NNE,24,7.5,7.5,80,0.00,,,0.00,VWS V14.01,2013-01-15 23:44:00,
2013-01-15 18:49:00,32.6,26.7,30.20,NE,39,4.5,6.0,79,0.00,,,0.00,VWS V14.01,2013-01-15 23:49:00,
2013-01-15 18:54:00,32.6,27.1,30.20,NNE,21,7.5,7.5,80,0.00,,,0.00,VWS V14.01,2013-01-15 23:54:00,
2013-01-15 18:59:00,32.5,27.0,30.20,ENE,59,10.5,12.0,80,0.00,,,0.00,VWS V14.01,2013-01-15 23:59:00,
2013-01-15 19:04:00,32.5,27.0,30.20,ENE,71,6.0,9.0,80,0.00,,,0.00,VWS V14.01,2013-01-16 00:04:00,
2013-01-15 19:09:00,32.4,26.9,30.20,ENE,69,6.0,6.0,80,0.00,,,0.00,VWS V14.01,2013-01-16 00:09:00,
2013-01-15 19:14:00,32.3,27.4,30.20,NE,46,6.0,7.5,82,0.00,,,0.00,VWS V14.01,2013-01-16 00:14:00,
2013-01-15 19:19:00,32.2,27.3,30.19,NE,48,6.0,10.5,82,0.00,,,0.00,VWS V14.01,2013-01-16 00:19:00,
2013-01-15 19:24:00,32.1,27.8,30.20,NE,44,4.5,9.0,84,0.00,,,0.00,VWS V14.01,2013-01-16 00:24:00,
2013-01-15 19:29:00,31.9,27.3,30.19,NNE,14,6.0,9.0,83,0.00,,,0.00,VWS V14.01,2013-01-16 00:29:00,
2013-01-15 19:34:00,31.8,27.5,30.19,ENE,61,4.5,6.0,84,0.00,,,0.00,VWS V14.01,2013-01-16 00:34:00,
2013-01-15 19:39:00,31.7,27.7,30.18,NE,53,12.0,15.0,85,0.00,,,0.00,VWS V14.01,2013-01-16 00:39:00,
2013-01-15 19:44:00,31.6,27.6,30.19,East,82,10.5,15.0,85,0.00,,,0.00,VWS V14.01,2013-01-16 00:44:00,
2013-01-15 19:49:00,31.6,27.9,30.18,East,79,4.5,13.5,86,0.00,,,0.00,VWS V14.01,2013-01-16 00:49:00,
2013-01-15 19:54:00,31.5,28.1,30.18,ENE,65,9.0,12.0,87,0.00,,,0.00,VWS V14.01,2013-01-16 00:54:00,
2013-01-15 19:59:00,31.4,28.0,30.19,NE,51,6.0,9.0,87,0.00,,,0.00,VWS V14.01,2013-01-16 00:59:00,
2013-01-15 20:04:00,31.4,28.3,30.19,NE,46,6.0,9.0,88,0.00,,,0.00,VWS V14.01,2013-01-16 01:04:00,
2013-01-15 20:09:00,31.3,28.2,30.19,ENE,57,6.0,6.0,88,0.00,,,0.00,VWS V14.01,2013-01-16 01:09:00,
2013-01-15 20:14:00,31.3,28.2,30.16,NE,41,9.0,10.5,88,0.00,,,0.00,VWS V14.01,2013-01-16 01:14:00,
2013-01-15 20:19:00,31.3,28.5,30.18,NE,34,4.5,7.5,89,0.00,,,0.00,VWS V14.01,2013-01-16 01:19:00,
2013-01-15 20:24:00,31.3,28.5,30.20,NE,36,4.5,6.0,89,0.00,,,0.00,VWS V14.01,2013-01-16 01:24:00,
2013-01-15 20:29:00,31.3,28.5,30.20,East,85,3.0,3.0,89,0.01,,,0.01,VWS V14.01,2013-01-16 01:29:00,
2013-01-15 20:34:00,31.3,28.5,30.18,NE,56,3.0,4.5,89,0.01,,,0.01,VWS V14.01,2013-01-16 01:34:00,
2013-01-15 20:39:00,31.3,28.8,30.18,East,97,6.0,7.5,90,0.01,,,0.01,VWS V14.01,2013-01-16 01:39:00,
2013-01-15 20:44:00,31.3,28.8,30.17,ENE,60,4.5,4.5,90,0.01,,,0.01,VWS V14.01,2013-01-16 01:44:00,
2013-01-15 20:49:00,31.3,28.8,30.16,East,81,10.5,10.5,90,0.01,,,0.01,VWS V14.01,2013-01-16 01:49:00,
2013-01-15 20:53:00,31.3,29.1,30.14,ENE,77,4.5,9.0,91,0.01,,,0.01,VWS V14.01,2013-01-16 01:53:00,
2013-01-15 20:58:00,31.3,29.1,30.14,NE,52,9.0,9.0,91,0.01,,,0.01,VWS V14.01,2013-01-16 01:58:00,
2013-01-15 21:03:00,31.2,29.0,30.15,ENE,65,6.0,6.0,91,0.01,,,0.01,VWS V14.01,2013-01-16 02:03:00,
2013-01-15 21:08:00,31.3,29.1,30.14,ENE,71,6.0,7.5,91,0.01,,,0.01,VWS V14.01,2013-01-16 02:08:00,
2013-01-15 21:13:00,31.3,29.1,30.14,ENE,63,7.5,10.5,91,0.01,,,0.01,VWS V14.01,2013-01-16 02:13:00,
2013-01-15 21:18:00,31.3,29.1,30.12,ENE,75,6.0,10.5,91,0.01,,,0.01,VWS V14.01,2013-01-16 02:18:00,
2013-01-15 21:23:00,31.3,29.1,30.12,ENE,60,9.0,10.5,91,0.01,,,0.01,VWS V14.01,2013-01-16 02:23:00,
2013-01-15 21:28:00,31.3,29.1,30.13,ENE,60,6.0,6.0,91,0.00,,,0.01,VWS V14.01,2013-01-16 02:28:00,
2013-01-15 21:33:00,31.3,29.1,30.12,ENE,67,7.5,9.0,91,0.00,,,0.01,VWS V14.01,2013-01-16 02:33:00,
2013-01-15 21:38:00,31.4,29.2,30.12,East,91,4.5,4.5,91,0.00,,,0.01,VWS V14.01,2013-01-16 02:38:00,
2013-01-15 21:43:00,31.4,29.5,30.12,ENE,65,3.0,3.0,92,0.00,,,0.01,VWS V14.01,2013-01-16 02:43:00,
2013-01-15 21:48:00,31.5,29.5,30.12,East,86,4.5,4.5,92,0.00,,,0.01,VWS V14.01,2013-01-16 02:48:00,
2013-01-15 21:53:00,31.5,29.5,30.13,ENE,61,6.0,7.5,92,0.00,,,0.01,VWS V14.01,2013-01-16 02:53:00,
2013-01-15 21:58:00,31.5,29.5,30.13,ENE,72,4.5,9.0,92,0.00,,,0.01,VWS V14.01,2013-01-16 02:58:00,
2013-01-15 22:03:00,31.5,29.5,30.12,NE,48,3.0,4.5,92,0.00,,,0.01,VWS V14.01,2013-01-16 03:03:00,
2013-01-15 22:08:00,31.6,29.6,30.12,East,91,3.0,4.5,92,0.00,,,0.01,VWS V14.01,2013-01-16 03:08:00,
2013-01-15 22:13:00,31.7,29.8,30.12,ENE,70,3.0,4.5,92,0.00,,,0.01,VWS V14.01,2013-01-16 03:13:00,
2013-01-15 22:18:00,31.7,29.8,30.12,East,101,4.5,4.5,92,0.00,,,0.01,VWS V14.01,2013-01-16 03:18:00,
2013-01-15 22:23:00,31.7,29.8,30.12,ENE,70,4.5,7.5,92,0.00,,,0.01,VWS V14.01,2013-01-16 03:23:00,
2013-01-15 22:28:00,31.7,29.8,30.11,ENE,66,4.5,4.5,92,0.00,,,0.01,VWS V14.01,2013-01-16 03:28:00,
2013-01-15 22:33:00,31.7,29.8,30.11,ENE,74,6.0,7.5,92,0.00,,,0.01,VWS V14.01,2013-01-16 03:33:00,
2013-01-15 22:38:00,31.8,29.9,30.11,East,93,1.5,1.5,92,0.00,,,0.01,VWS V14.01,2013-01-16 03:38:00,
2013-01-15 22:43:00,31.8,29.9,30.10,East,91,4.5,7.5,92,0.00,,,0.01,VWS V14.01,2013-01-16 03:43:00,
2013-01-15 22:48:00,31.8,29.9,30.10,NE,56,4.5,7.5,92,0.00,,,0.01,VWS V14.01,2013-01-16 03:48:00,
2013-01-15 22:53:00,31.8,29.9,30.10,East,89,1.5,3.0,92,0.00,,,0.01,VWS V14.01,2013-01-16 03:53:00,
2013-01-15 22:58:00,31.8,29.9,30.11,NE,53,3.0,4.5,92,0.00,,,0.01,VWS V14.01,2013-01-16 03:58:00,
2013-01-15 23:03:00,31.8,29.9,30.10,ENE,65,4.5,6.0,92,0.00,,,0.01,VWS V14.01,2013-01-16 04:03:00,
2013-01-15 23:08:00,31.8,29.9,30.10,NNE,13,4.5,4.5,92,0.00,,,0.01,VWS V14.01,2013-01-16 04:08:00,
2013-01-15 23:13:00,31.8,30.1,30.11,NE,44,1.5,3.0,93,0.00,,,0.01,VWS V14.01,2013-01-16 04:13:00,
2013-01-15 23:18:00,31.9,30.2,30.12,NNE,31,3.0,4.5,93,0.00,,,0.01,VWS V14.01,2013-01-16 04:18:00,
2013-01-15 23:23:00,31.9,30.2,30.12,NNW,336,3.0,4.5,93,0.00,,,0.01,VWS V14.01,2013-01-16 04:23:00,
2013-01-15 23:28:00,31.9,30.2,30.11,NNE,31,7.5,9.0,93,0.00,,,0.01,VWS V14.01,2013-01-16 04:28:00,
2013-01-15 23:33:00,31.9,30.2,30.11,North,357,3.0,4.5,93,0.00,,,0.01,VWS V14.01,2013-01-16 04:33:00,
2013-01-15 23:38:00,32.0,30.3,30.12,North,1,1.5,3.0,93,0.00,,,0.01,VWS V14.01,2013-01-16 04:38:00,
2013-01-15 23:43:00,32.1,30.4,30.11,NNE,13,3.0,3.0,93,0.00,,,0.01,VWS V14.01,2013-01-16 04:43:00,
2013-01-15 23:48:00,32.0,30.3,30.10,North,7,4.5,4.5,93,0.00,,,0.01,VWS V14.01,2013-01-16 04:48:00,
2013-01-15 23:53:00,32.0,30.6,30.10,North,3,7.5,7.5,94,0.00,,,0.01,VWS V14.01,2013-01-16 04:53:00,
2013-01-15 23:58:00,32.0,30.6,30.09,ENE,60,6.0,7.5,94,0.00,,,0.01,VWS V14.01,2013-01-16 04:58:00,